Kinston Regional Jetport At Stallings Field
KISO : now visible

Airfield :











YOU CAN JOIN US ON...

 
LOGIN :

Register | Disclaimer

   EN    FR    IT 

 









Legend :    VFR   Marginal VFR   IFR   Intensive IFR   Very Intensive IFR
Visi :
Ceiling :
>= 8 km
>= 3000ft
5 to 8 km
1000 to 3000 ft
1500m to 5 km
500 to 1000 ft
800 to 1500m
200 to 500 ft
< 800m
< 200 ft
Symbols :   Thunderstorms  Fog  Heavy snow  Heavy precipitations  Wind > 20 kt






- Airport Elevation : 93 ft


KISO - Kinston Regional Jetport At Stallings Field

CURRENT METAR :
  • 041756Z 00000KT 10SM SCT060 32/19 A2992

EXPIRED METARs :
  • 041656Z 26005KT 10SM CLR 33/20 A2993

TAF KISO
Valid from the 04 at 18:00 until the 05 at 18:00 UTC


041721Z 0418/0518 31004KT P6SM FEW250
FM041900 VRB03KT P6SM FEW070
FM050800 00000KT 5SM BR FEW250
FM050900 00000KT 3SM BR FEW250
FM051200 VRB03KT P6SM SCT250
FM051500 VRB03KT P6SM SCT100 AMD LTD TO CLD VIS AND WIND
KZDC FIR / North America



MET'MAP, your aeronautical weather chart ! - Copyright ORBIFLY December 2007 - Disclaimer

ORBIFLY MET'MAP TEAM :

Programming & Development : Alexandra Zaïnal
Concept & original design : Baudouin d'Aumeries
Assistance for programming : Marc-Olivier Méhu
Technical & hardware support : Manuel Goepfert

Contact : metmap@orbifly.com




SOURCES & CREDITS :

   NOAA       Earth
Advisory